Time;durP1;ratioP1;P1;durP2;ratioP2;P2;SDS_P1;SDS_P2;PMS_P1;PMS_P2;Temp;Humidity;BMP_temperature;BMP_pressure;BME280_temperature;BME280_humidity;BME280_pressure;Samples;Min_cycle;Max_cycle;Signal;HPM_P1;HPM_P2
2022/07/31 00:00:26;;;;;;;8.90;3.42;;;22.10;99.10;;;;;;7370538;19;111683;-81
2022/07/31 00:02:53;;;;;;;7.25;3.53;;;22.10;99.10;;;;;;7378439;19;109133;-81
2022/07/31 00:05:30;;;;;;;11.63;3.50;;;22.10;99.00;;;;;;7375202;19;108986;-83
2022/07/31 00:08:07;;;;;;;5.15;3.80;;;22.10;99.00;;;;;;7376487;19;109461;-82
2022/07/31 00:10:34;;;;;;;5.30;3.30;;;22.10;99.40;;;;;;7373252;19;111596;-82
2022/07/31 00:13:01;;;;;;;6.13;3.10;;;22.10;99.40;;;;;;7373643;19;109248;-81
2022/07/31 00:15:29;;;;;;;5.07;2.90;;;22.00;99.60;;;;;;7374730;19;109453;-83
2022/07/31 00:17:56;;;;;;;4.93;3.20;;;22.00;99.60;;;;;;7358134;19;110125;-82
2022/07/31 00:20:24;;;;;;;9.20;3.60;;;22.00;99.80;;;;;;7349298;19;109421;-82
2022/07/31 00:22:51;;;;;;;7.03;3.50;;;21.90;99.50;;;;;;7357443;19;109483;-82
2022/07/31 00:25:18;;;;;;;7.72;3.70;;;22.00;99.60;;;;;;7353471;19;109388;-82
2022/07/31 00:27:45;;;;;;;7.65;3.60;;;21.90;99.60;;;;;;7350324;19;109824;-82
2022/07/31 00:30:13;;;;;;;7.95;3.33;;;21.90;99.50;;;;;;7337822;19;110389;-84
2022/07/31 00:32:40;;;;;;;6.25;3.03;;;22.00;99.90;;;;;;7340829;19;110670;-84
2022/07/31 00:35:09;;;;;;;10.02;3.42;;;22.10;99.90;;;;;;7338929;19;109609;-83
2022/07/31 00:37:39;;;;;;;6.70;3.03;;;22.10;99.70;;;;;;7341388;19;111211;-84
2022/07/31 00:40:10;;;;;;;5.22;2.92;;;22.20;99.70;;;;;;7341747;19;109905;-84
2022/07/31 00:42:37;;;;;;;4.80;3.20;;;22.30;99.70;;;;;;7340547;19;111673;-84
2022/07/31 00:45:05;;;;;;;5.68;3.10;;;22.40;99.60;;;;;;7348592;19;110390;-84
2022/07/31 00:47:32;;;;;;;6.40;3.22;;;22.40;99.60;;;;;;7342743;19;112107;-84
2022/07/31 00:49:59;;;;;;;12.35;3.72;;;22.50;99.40;;;;;;7340521;19;110312;-84
2022/07/31 00:52:26;;;;;;;7.93;3.50;;;22.50;99.20;;;;;;7341922;19;109477;-84
2022/07/31 00:54:53;;;;;;;7.90;3.92;;;22.60;99.10;;;;;;7341049;19;110619;-84
2022/07/31 00:57:20;;;;;;;7.80;3.70;;;22.60;99.00;;;;;;7340390;19;110284;-84
2022/07/31 00:59:47;;;;;;;5.28;4.28;;;22.60;98.80;;;;;;7340879;19;109827;-84
2022/07/31 01:02:14;;;;;;;5.13;3.47;;;22.60;98.80;;;;;;7338907;19;112992;-83
2022/07/31 01:04:42;;;;;;;6.72;3.63;;;22.60;98.80;;;;;;7342706;19;111274;-84
2022/07/31 01:07:11;;;;;;;5.00;4.20;;;22.50;98.70;;;;;;7348050;19;109726;-83
2022/07/31 01:09:38;;;;;;;6.07;4.28;;;22.50;98.90;;;;;;7342354;19;111283;-83
2022/07/31 01:12:23;;;;;;;8.57;4.03;;;22.50;98.70;;;;;;7341467;19;109828;-83
2022/07/31 01:14:54;;;;;;;8.27;4.10;;;22.60;98.70;;;;;;7341363;19;110100;-83
2022/07/31 01:17:23;;;;;;;6.82;4.00;;;22.50;98.60;;;;;;7341245;19;111059;-82
2022/07/31 01:19:51;;;;;;;5.75;3.72;;;22.50;98.50;;;;;;7342468;19;109980;-84
2022/07/31 01:22:27;;;;;;;9.65;3.80;;;22.50;98.90;;;;;;7341304;19;110132;-83
2022/07/31 01:25:22;;;;;;;8.65;3.88;;;22.50;98.40;;;;;;7340829;19;110317;-82
2022/07/31 01:27:59;;;;;;;8.25;3.47;;;22.60;98.50;;;;;;7339260;19;109802;-81
2022/07/31 01:30:34;;;;;;;6.20;3.30;;;22.50;98.40;;;;;;7345783;19;110461;-81
2022/07/31 01:33:09;;;;;;;6.40;3.50;;;22.50;98.50;;;;;;7340228;19;110211;-83
2022/07/31 01:35:42;;;;;;;7.13;3.72;;;22.50;98.60;;;;;;7335445;19;110214;-82
2022/07/31 01:38:34;;;;;;;7.15;3.70;;;22.40;98.60;;;;;;7339952;19;114161;-81
2022/07/31 01:41:10;;;;;;;4.65;2.83;;;22.40;98.50;;;;;;7339479;19;109430;-81
2022/07/31 01:43:40;;;;;;;5.78;2.92;;;22.40;98.70;;;;;;7338571;19;110435;-81
2022/07/31 01:46:14;;;;;;;5.93;2.72;;;22.40;98.80;;;;;;7336842;19;114303;-80
2022/07/31 01:48:42;;;;;;;5.47;2.40;;;22.40;98.80;;;;;;7340805;19;109629;-80
2022/07/31 01:51:11;;;;;;;5.53;2.17;;;22.30;98.90;;;;;;7338473;19;110379;-81
2022/07/31 01:53:39;;;;;;;4.32;1.92;;;22.30;99.00;;;;;;7345316;19;110720;-82
2022/07/31 01:56:08;;;;;;;2.33;1.92;;;22.20;99.10;;;;;;7336017;19;110514;-81
2022/07/31 01:58:37;;;;;;;4.85;2.10;;;22.20;99.10;;;;;;7337123;19;111033;-80
2022/07/31 02:01:08;;;;;;;4.22;2.00;;;22.20;99.60;;;;;;7339425;19;110977;-80
2022/07/31 02:03:38;;;;;;;7.00;2.25;;;22.20;99.30;;;;;;7337820;19;109786;-82
2022/07/31 02:06:13;;;;;;;6.50;2.00;;;22.20;99.30;;;;;;7339616;19;113400;-81
2022/07/31 02:08:46;;;;;;;5.53;1.60;;;22.20;99.30;;;;;;7338710;19;110081;-81
2022/07/31 02:11:18;;;;;;;6.70;1.80;;;22.10;99.40;;;;;;7337572;19;110504;-81
2022/07/31 02:13:47;;;;;;;2.92;1.60;;;22.10;99.60;;;;;;7336226;19;111444;-80
2022/07/31 02:16:16;;;;;;;2.50;1.50;;;22.10;99.70;;;;;;7342910;19;109366;-81
2022/07/31 02:18:43;;;;;;;4.82;1.80;;;22.00;99.80;;;;;;7338478;19;110268;-82
2022/07/31 02:21:10;;;;;;;4.80;1.67;;;22.00;99.80;;;;;;7340095;19;109702;-82
2022/07/31 02:23:37;;;;;;;3.05;1.60;;;22.00;99.80;;;;;;7338729;19;111730;-81
2022/07/31 02:26:05;;;;;;;2.60;1.52;;;22.00;99.90;;;;;;7338222;19;110161;-82
2022/07/31 02:28:36;;;;;;;3.05;1.50;;;22.00;99.90;;;;;;7338389;19;109709;-80
2022/07/31 02:31:09;;;;;;;5.43;1.42;;;22.00;99.90;;;;;;7337416;19;109382;-81
2022/07/31 02:33:38;;;;;;;3.50;1.48;;;22.00;99.90;;;;;;7338792;19;110154;-80
2022/07/31 02:36:07;;;;;;;3.40;1.30;;;22.00;99.90;;;;;;7340501;19;109602;-79
2022/07/31 02:38:36;;;;;;;4.47;1.30;;;22.00;99.90;;;;;;7339567;19;110204;-81
2022/07/31 02:41:04;;;;;;;3.15;1.50;;;22.00;99.90;;;;;;7339172;19;109524;-81
2022/07/31 02:43:33;;;;;;;4.07;1.33;;;21.90;99.90;;;;;;7340569;19;110916;-83
2022/07/31 02:46:03;;;;;;;2.75;1.63;;;21.90;99.90;;;;;;7337906;19;110290;-82
2022/07/31 02:48:31;;;;;;;2.95;1.70;;;21.90;99.90;;;;;;7339162;19;109463;-82
2022/07/31 02:50:58;;;;;;;6.32;1.40;;;21.90;99.90;;;;;;7339498;19;109692;-81
2022/07/31 02:53:26;;;;;;;2.42;1.50;;;21.90;99.90;;;;;;7339152;19;111208;-83
2022/07/31 02:55:53;;;;;;;2.60;1.35;;;21.90;99.90;;;;;;7339600;19;109439;-81
2022/07/31 02:58:20;;;;;;;3.75;1.60;;;21.90;99.90;;;;;;7345371;19;109893;-82
2022/07/31 03:00:56;;;;;;;2.20;1.40;;;21.90;99.90;;;;;;7336902;19;110589;-82
2022/07/31 03:03:23;;;;;;;5.43;1.50;;;21.90;99.90;;;;;;7339786;19;110416;-83
2022/07/31 03:05:51;;;;;;;2.10;1.52;;;21.90;99.90;;;;;;7340500;19;111021;-83
2022/07/31 03:08:18;;;;;;;2.40;1.58;;;21.90;99.90;;;;;;7339770;19;109317;-84
2022/07/31 03:10:46;;;;;;;3.05;1.73;;;21.90;99.90;;;;;;7340630;19;110593;-83
2022/07/31 03:13:14;;;;;;;4.18;1.55;;;21.90;99.90;;;;;;7338633;19;111148;-82
2022/07/31 03:15:43;;;;;;;2.92;1.55;;;21.90;99.90;;;;;;7337028;19;109436;-83
2022/07/31 03:18:20;;;;;;;1.92;1.40;;;21.80;99.90;;;;;;7338264;19;110246;-82
2022/07/31 03:20:50;;;;;;;4.18;1.25;;;21.90;99.90;;;;;;7344574;19;110248;-83
2022/07/31 03:23:20;;;;;;;2.78;1.30;;;21.80;99.90;;;;;;7339345;19;110482;-82
2022/07/31 03:25:49;;;;;;;2.75;1.20;;;21.80;99.90;;;;;;7345353;19;111335;-82
2022/07/31 03:28:20;;;;;;;3.10;1.27;;;21.80;99.90;;;;;;7345064;19;109912;-81
2022/07/31 03:30:51;;;;;;;2.13;1.40;;;21.80;99.90;;;;;;7345055;19;110482;-82
2022/07/31 03:33:22;;;;;;;2.28;1.23;;;21.80;99.90;;;;;;7344662;19;111184;-81
2022/07/31 03:35:49;;;;;;;2.83;1.20;;;21.70;99.90;;;;;;7343600;19;109453;-81
2022/07/31 03:38:16;;;;;;;1.75;1.10;;;21.70;99.90;;;;;;7343885;19;110352;-82
2022/07/31 03:41:04;;;;;;;2.83;1.42;;;21.70;99.90;;;;;;7342867;19;112605;-81
2022/07/31 03:43:33;;;;;;;2.05;1.20;;;21.70;99.90;;;;;;7344990;19;109745;-82
2022/07/31 03:46:17;;;;;;;4.63;1.30;;;21.70;99.90;;;;;;7343771;19;111989;-80
2022/07/31 03:48:45;;;;;;;3.67;1.35;;;21.60;99.90;;;;;;7343322;19;110361;-80
2022/07/31 03:51:13;;;;;;;2.42;1.40;;;21.60;99.90;;;;;;7342852;19;110065;-82
2022/07/31 03:53:41;;;;;;;3.15;1.63;;;21.60;99.90;;;;;;7343268;19;110174;-80
2022/07/31 03:56:10;;;;;;;2.60;1.45;;;21.60;99.90;;;;;;7342278;19;110505;-80
2022/07/31 03:58:37;;;;;;;3.65;1.40;;;21.50;99.90;;;;;;7342980;19;110284;-80
2022/07/31 04:01:06;;;;;;;3.03;1.50;;;21.50;99.90;;;;;;7343408;19;110095;-81
2022/07/31 04:03:38;;;;;;;3.40;1.42;;;21.50;99.90;;;;;;7343073;19;109346;-80
2022/07/31 04:06:05;;;;;;;3.25;1.55;;;21.50;99.90;;;;;;7348411;19;110389;-81
2022/07/31 04:08:32;;;;;;;3.70;1.60;;;21.50;99.90;;;;;;7343401;19;110270;-80
2022/07/31 04:11:00;;;;;;;2.90;1.50;;;21.50;99.90;;;;;;7341620;19;110458;-80
2022/07/31 04:13:27;;;;;;;3.03;1.60;;;21.50;99.90;;;;;;7342757;19;111480;-79
2022/07/31 04:15:54;;;;;;;5.07;1.90;;;21.40;99.90;;;;;;7339375;19;110005;-79
2022/07/31 04:18:21;;;;;;;3.85;1.90;;;21.40;99.90;;;;;;7338678;19;111693;-80
2022/07/31 04:20:48;;;;;;;2.30;1.70;;;21.40;99.90;;;;;;7341748;19;111022;-79
2022/07/31 04:23:15;;;;;;;2.85;1.67;;;21.40;99.90;;;;;;7339979;19;109361;-81
2022/07/31 04:25:42;;;;;;;2.75;1.50;;;21.40;99.90;;;;;;7342263;19;110777;-80
2022/07/31 04:28:10;;;;;;;5.40;1.73;;;21.40;99.90;;;;;;7345096;19;111088;-80
2022/07/31 04:30:38;;;;;;;3.75;1.80;;;21.40;99.90;;;;;;7341099;19;110404;-82
2022/07/31 04:33:05;;;;;;;6.88;1.60;;;21.40;99.90;;;;;;7339981;19;112626;-80
2022/07/31 04:35:32;;;;;;;8.65;1.83;;;21.40;99.90;;;;;;7341095;19;109592;-79
2022/07/31 04:37:59;;;;;;;4.78;1.90;;;21.40;99.90;;;;;;7337353;19;110070;-81
2022/07/31 04:40:26;;;;;;;5.03;1.52;;;21.30;99.90;;;;;;7342328;19;112012;-81
2022/07/31 04:42:54;;;;;;;4.45;1.58;;;21.30;99.90;;;;;;7339975;19;109880;-83
2022/07/31 04:45:21;;;;;;;3.17;1.55;;;21.30;99.90;;;;;;7341819;19;114093;-80
2022/07/31 04:47:48;;;;;;;4.55;1.70;;;21.30;99.90;;;;;;7347881;19;111182;-82
2022/07/31 04:50:15;;;;;;;5.45;1.48;;;21.40;99.90;;;;;;7339368;19;110398;-82
2022/07/31 04:52:42;;;;;;;3.80;1.40;;;21.40;99.90;;;;;;7339919;19;112235;-80
2022/07/31 04:55:09;;;;;;;6.78;1.70;;;21.30;99.90;;;;;;7338175;19;109282;-81
2022/07/31 04:57:36;;;;;;;3.80;1.70;;;21.40;99.90;;;;;;7338910;19;109733;-81
2022/07/31 05:00:06;;;;;;;8.60;1.60;;;21.40;99.90;;;;;;7339336;19;111838;-80
2022/07/31 05:02:34;;;;;;;2.97;1.63;;;21.30;99.90;;;;;;7342183;19;109773;-82
2022/07/31 05:05:02;;;;;;;3.60;1.70;;;21.40;99.90;;;;;;7339074;19;110342;-82
2022/07/31 05:07:29;;;;;;;4.70;1.58;;;21.40;99.90;;;;;;7341290;19;111843;-84
2022/07/31 05:09:57;;;;;;;2.33;1.42;;;21.40;99.90;;;;;;7346443;19;109787;-81
2022/07/31 05:12:24;;;;;;;3.33;1.50;;;21.30;99.90;;;;;;7339034;19;110928;-81
2022/07/31 05:14:52;;;;;;;3.92;1.40;;;21.30;99.90;;;;;;7337564;19;109953;-82
2022/07/31 05:17:19;;;;;;;3.33;1.50;;;21.30;99.90;;;;;;7339701;19;109793;-82
2022/07/31 05:19:46;;;;;;;4.25;1.60;;;21.30;99.90;;;;;;7339226;19;111479;-81
2022/07/31 05:22:13;;;;;;;4.95;1.40;;;21.30;99.90;;;;;;7341645;19;109704;-85
2022/07/31 05:24:41;;;;;;;4.50;1.65;;;21.40;99.90;;;;;;7341131;19;110298;-81
2022/07/31 05:27:09;;;;;;;2.17;1.35;;;21.40;99.90;;;;;;7340227;19;111096;-85
2022/07/31 05:29:36;;;;;;;2.58;1.35;;;21.30;99.90;;;;;;7338186;19;109363;-80
2022/07/31 05:32:03;;;;;;;3.55;1.42;;;21.40;99.90;;;;;;7347501;19;110402;-81
2022/07/31 05:34:30;;;;;;;6.28;1.50;;;21.40;99.90;;;;;;7340913;19;109322;-82
2022/07/31 05:37:01;;;;;;;6.22;1.67;;;21.40;99.90;;;;;;7340071;19;109902;-79
2022/07/31 05:39:29;;;;;;;3.67;1.23;;;21.40;99.90;;;;;;7340345;19;111155;-84
2022/07/31 05:41:56;;;;;;;3.67;1.40;;;21.40;99.90;;;;;;7340872;19;109358;-78
2022/07/31 05:44:23;;;;;;;3.10;1.40;;;21.40;99.90;;;;;;7340569;19;110826;-81
2022/07/31 05:46:51;;;;;;;4.32;1.50;;;21.40;99.90;;;;;;7340051;19;110293;-80
2022/07/31 05:49:16;;;;;;;3.65;1.38;;;21.40;99.90;;;;;;7341644;19;109685;-82
2022/07/31 05:51:45;;;;;;;4.32;1.63;;;21.50;99.90;;;;;;7341287;19;110218;-80
2022/07/31 05:54:13;;;;;;;7.35;1.95;;;21.50;99.90;;;;;;7344664;19;110293;-81
2022/07/31 05:56:40;;;;;;;4.20;1.92;;;21.60;99.90;;;;;;7339623;19;110716;-83
2022/07/31 05:59:07;;;;;;;5.50;1.90;;;21.50;99.90;;;;;;7337945;19;109723;-81
2022/07/31 06:01:34;;;;;;;3.80;1.50;;;21.50;99.90;;;;;;7340568;19;110953;-82
2022/07/31 06:04:01;;;;;;;7.93;2.28;;;21.50;99.90;;;;;;7340256;19;109990;-81
2022/07/31 06:06:28;;;;;;;4.43;1.42;;;21.50;99.90;;;;;;7339595;19;111227;-82
2022/07/31 06:08:56;;;;;;;15.00;1.98;;;21.60;99.90;;;;;;7338296;19;109457;-81
2022/07/31 06:11:29;;;;;;;10.25;1.90;;;21.60;99.90;;;;;;7340477;19;110639;-83
2022/07/31 06:13:57;;;;;;;5.05;1.70;;;21.70;99.90;;;;;;7338554;19;111375;-82
2022/07/31 06:16:24;;;;;;;5.93;1.63;;;21.70;99.90;;;;;;7344320;19;109614;-84
2022/07/31 06:18:51;;;;;;;4.18;1.75;;;21.70;99.90;;;;;;7336368;19;114691;-81
2022/07/31 06:21:18;;;;;;;4.47;1.83;;;21.70;99.90;;;;;;7339781;19;109794;-83
2022/07/31 06:23:44;;;;;;;4.43;1.90;;;21.70;99.90;;;;;;7341035;19;109312;-83
2022/07/31 06:26:11;;;;;;;9.13;1.92;;;21.70;99.90;;;;;;7339288;19;111477;-83
2022/07/31 06:28:38;;;;;;;5.70;1.95;;;21.70;99.90;;;;;;7339560;19;109343;-86
2022/07/31 06:31:23;;;;;;;5.97;1.92;;;21.70;99.90;;;;;;7339880;19;110468;-81
2022/07/31 06:33:51;;;;;;;3.63;1.80;;;21.80;99.90;;;;;;7339707;19;111187;-81
2022/07/31 06:36:18;;;;;;;3.22;2.20;;;21.80;99.90;;;;;;7339872;19;109433;-85
2022/07/31 06:38:45;;;;;;;3.47;2.38;;;21.80;99.90;;;;;;7343122;19;110156;-83
2022/07/31 06:43:58;;;;;;;4.45;2.13;;;21.90;99.90;;;;;;7338059;19;109837;-82
2022/07/31 06:46:25;;;;;;;4.22;2.22;;;21.90;99.90;;;;;;7338306;19;110220;-85
2022/07/31 06:48:52;;;;;;;5.75;2.25;;;21.90;99.90;;;;;;7339105;19;109394;-82
2022/07/31 06:51:20;;;;;;;6.10;2.38;;;22.00;99.90;;;;;;7338766;19;109935;-84
2022/07/31 06:54:04;;;;;;;7.38;2.70;;;22.00;99.90;;;;;;7339070;19;111300;-83
2022/07/31 06:56:32;;;;;;;4.30;2.45;;;22.10;99.90;;;;;;7339317;19;109756;-81
2022/07/31 06:59:00;;;;;;;5.43;2.92;;;22.10;99.90;;;;;;7339912;19;110514;-86
2022/07/31 07:01:28;;;;;;;6.05;2.60;;;22.10;99.90;;;;;;7339429;19;109400;-81
2022/07/31 07:03:55;;;;;;;6.57;3.13;;;22.10;99.90;;;;;;7338885;19;109726;-85
2022/07/31 07:06:23;;;;;;;5.28;3.33;;;22.20;99.90;;;;;;7338927;19;110494;-85
2022/07/31 07:08:50;;;;;;;7.00;3.35;;;22.20;99.90;;;;;;7337846;19;110208;-83
2022/07/31 07:11:18;;;;;;;5.47;3.22;;;22.30;99.90;;;;;;7338773;19;109354;-86
2022/07/31 07:13:46;;;;;;;8.05;3.25;;;22.30;99.90;;;;;;7337384;19;111819;-87
2022/07/31 07:16:14;;;;;;;5.57;2.90;;;22.30;99.90;;;;;;7338654;19;109557;-84
2022/07/31 07:18:44;;;;;;;3.20;2.83;;;22.40;99.90;;;;;;7335196;19;109966;-82
2022/07/31 07:21:11;;;;;;;6.70;3.33;;;22.40;99.90;;;;;;7344292;19;112219;-85
2022/07/31 07:23:39;;;;;;;6.13;3.10;;;22.50;99.90;;;;;;7338326;19;109402;-85
2022/07/31 07:26:07;;;;;;;7.47;3.33;;;22.50;99.90;;;;;;7333646;19;111115;-83
2022/07/31 07:28:34;;;;;;;6.70;2.90;;;22.60;99.90;;;;;;7337534;19;109451;-87
2022/07/31 07:31:03;;;;;;;5.72;3.17;;;22.60;99.90;;;;;;7337826;19;109492;-85
2022/07/31 07:33:31;;;;;;;6.28;3.10;;;22.70;99.90;;;;;;7336550;19;110118;-84
2022/07/31 07:36:09;;;;;;;6.60;3.40;;;22.70;99.90;;;;;;7337039;19;109347;-84
2022/07/31 07:38:52;;;;;;;6.18;2.75;;;22.70;99.90;;;;;;7335395;19;110805;-85
2022/07/31 07:41:24;;;;;;;3.30;2.50;;;22.70;99.90;;;;;;7337712;19;110186;-86
2022/07/31 07:43:52;;;;;;;3.88;2.63;;;22.80;99.90;;;;;;7343346;19;109474;-86
2022/07/31 07:46:21;;;;;;;6.25;2.55;;;22.80;99.90;;;;;;7336987;19;111430;-85
2022/07/31 07:48:49;;;;;;;7.60;2.88;;;22.90;99.90;;;;;;7336756;19;109314;-85
2022/07/31 07:51:17;;;;;;;6.18;2.97;;;23.00;99.90;;;;;;7338199;19;110587;-85
2022/07/31 07:53:44;;;;;;;5.30;2.70;;;23.10;99.90;;;;;;7337102;19;114321;-84
2022/07/31 07:56:11;;;;;;;10.10;2.88;;;23.10;99.90;;;;;;7337118;19;109543;-84
2022/07/31 07:58:39;;;;;;;6.55;2.88;;;23.10;99.90;;;;;;7334349;19;110777;-86
2022/07/31 08:01:06;;;;;;;7.20;3.00;;;23.10;99.90;;;;;;7336652;19;109995;-82
2022/07/31 08:03:33;;;;;;;4.47;2.50;;;23.20;99.90;;;;;;7336568;19;110066;-87
2022/07/31 08:06:18;;;;;;;7.60;2.58;;;23.30;99.90;;;;;;7342038;19;110584;-86
2022/07/31 08:08:45;;;;;;;3.90;2.55;;;23.30;99.90;;;;;;7335803;19;109330;-86
2022/07/31 08:11:12;;;;;;;3.42;2.63;;;23.50;99.90;;;;;;7337740;19;110233;-83
2022/07/31 08:13:44;;;;;;;4.55;2.75;;;23.60;99.90;;;;;;7342015;19;110042;-84
2022/07/31 08:16:17;;;;;;;11.68;2.95;;;23.70;99.90;;;;;;7342104;19;109944;-83
2022/07/31 08:18:44;;;;;;;5.38;2.65;;;23.70;99.90;;;;;;7341320;19;109572;-85
2022/07/31 08:21:12;;;;;;;5.25;2.60;;;23.70;99.90;;;;;;7342894;19;110158;-85
2022/07/31 08:23:39;;;;;;;4.28;2.35;;;23.80;99.90;;;;;;7343423;19;109487;-85
2022/07/31 08:26:07;;;;;;;3.95;2.78;;;23.80;99.90;;;;;;7342807;19;110432;-85
2022/07/31 08:28:35;;;;;;;5.82;2.65;;;23.80;99.90;;;;;;7348190;19;112389;-83
2022/07/31 08:31:02;;;;;;;3.63;2.55;;;23.90;99.90;;;;;;7342697;19;110532;-80
2022/07/31 08:33:31;;;;;;;5.78;2.58;;;23.90;99.90;;;;;;7343174;19;113075;-85
2022/07/31 08:35:59;;;;;;;5.32;2.90;;;24.00;99.90;;;;;;7342788;19;110633;-86
2022/07/31 08:38:27;;;;;;;5.63;2.75;;;24.10;99.90;;;;;;7341358;19;110376;-87
2022/07/31 08:40:54;;;;;;;3.60;2.40;;;24.10;99.90;;;;;;7343145;19;111661;-84
2022/07/31 08:43:21;;;;;;;3.60;2.45;;;24.20;99.90;;;;;;7342093;19;109422;-85
2022/07/31 08:46:10;;;;;;;15.48;3.97;;;24.30;99.90;;;;;;7342525;19;111639;-83
2022/07/31 08:48:40;;;;;;;4.68;2.80;;;24.40;99.90;;;;;;7343505;19;111574;-81
2022/07/31 08:51:10;;;;;;;7.13;2.72;;;24.50;99.90;;;;;;7346977;19;110846;-84
2022/07/31 08:53:38;;;;;;;3.03;2.33;;;24.50;99.90;;;;;;7342728;19;110139;-85
2022/07/31 08:56:07;;;;;;;7.88;2.70;;;24.60;99.90;;;;;;7341909;19;110433;-84
2022/07/31 08:58:34;;;;;;;5.45;2.53;;;24.80;99.90;;;;;;7340077;19;109621;-84
2022/07/31 09:01:15;;;;;;;5.20;3.00;;;24.80;99.90;;;;;;7342766;19;111384;-82
2022/07/31 09:03:43;;;;;;;;;;;24.90;99.90;;;;;;7343585;19;109380;-84
2022/07/31 09:06:10;;;;;;;4.72;2.58;;;24.90;99.90;;;;;;7345056;19;110116;-86
2022/07/31 09:08:37;;;;;;;5.93;2.90;;;24.90;99.90;;;;;;7340418;19;111428;-85
2022/07/31 09:11:11;;;;;;;6.28;2.88;;;25.00;99.90;;;;;;7347533;19;109785;-83
2022/07/31 09:13:38;;;;;;;4.80;3.17;;;25.10;99.90;;;;;;7340793;19;110220;-83
2022/07/31 09:16:06;;;;;;;5.60;2.60;;;25.10;99.90;;;;;;7341692;19;109588;-86
2022/07/31 09:18:33;;;;;;;5.93;2.30;;;25.20;99.90;;;;;;7341284;19;109805;-84
2022/07/31 09:21:05;;;;;;;6.10;2.38;;;25.30;99.90;;;;;;7342311;19;110725;-84
2022/07/31 09:23:42;;;;;;;7.43;2.53;;;25.40;99.90;;;;;;7338822;19;109660;-86
2022/07/31 09:26:09;;;;;;;3.08;2.30;;;25.40;99.90;;;;;;7341040;19;110530;-87
2022/07/31 09:28:41;;;;;;;4.60;2.20;;;25.40;99.90;;;;;;7341268;19;112716;-83
2022/07/31 09:31:10;;;;;;;4.82;2.47;;;25.60;99.90;;;;;;7340453;19;109956;-85
2022/07/31 09:33:38;;;;;;;4.97;2.40;;;25.60;99.90;;;;;;7344632;19;110269;-85
2022/07/31 09:36:12;;;;;;;5.78;2.35;;;25.70;99.90;;;;;;7340544;19;109652;-86
2022/07/31 09:38:42;;;;;;;2.50;1.98;;;26.00;99.90;;;;;;7340180;19;110268;-84
2022/07/31 09:41:10;;;;;;;2.97;2.20;;;26.20;99.90;;;;;;7339017;19;110276;-83
2022/07/31 09:44:01;;;;;;;5.18;2.00;;;26.30;99.90;;;;;;7339434;19;110513;-84
2022/07/31 09:46:44;;;;;;;3.58;1.70;;;26.30;99.90;;;;;;7341063;19;110512;-85
2022/07/31 09:49:11;;;;;;;3.80;2.20;;;26.40;99.90;;;;;;7339604;19;111202;-83
2022/07/31 09:51:39;;;;;;;4.05;2.13;;;26.40;99.90;;;;;;7341399;19;109571;-86
2022/07/31 09:54:07;;;;;;;7.28;1.95;;;26.50;99.90;;;;;;7337764;19;109483;-85
2022/07/31 09:56:35;;;;;;;4.10;1.90;;;26.50;99.90;;;;;;7346353;19;111208;-83
2022/07/31 09:59:02;;;;;;;4.80;1.85;;;26.50;99.90;;;;;;7337076;19;109887;-85
2022/07/31 10:01:32;;;;;;;6.10;1.83;;;26.60;99.90;;;;;;7337200;19;111198;-85
2022/07/31 10:04:00;;;;;;;4.13;1.88;;;26.70;99.90;;;;;;7338981;19;109921;-85
2022/07/31 10:06:31;;;;;;;3.33;2.00;;;26.60;99.90;;;;;;7340434;19;110724;-86
2022/07/31 10:09:01;;;;;;;7.03;2.10;;;26.70;99.90;;;;;;7339149;19;110216;-84
2022/07/31 10:11:30;;;;;;;2.92;1.73;;;26.70;99.90;;;;;;7338632;19;109355;-84
2022/07/31 10:14:00;;;;;;;2.15;1.90;;;26.70;99.90;;;;;;7337879;19;110483;-86
2022/07/31 10:16:34;;;;;;;6.80;2.20;;;26.60;99.50;;;;;;7339134;19;112013;-85
2022/07/31 10:19:09;;;;;;;3.53;2.17;;;26.60;99.60;;;;;;7343109;19;110358;-86
2022/07/31 10:21:41;;;;;;;2.10;1.90;;;26.50;99.60;;;;;;7338784;19;110513;-84
2022/07/31 10:24:11;;;;;;;7.63;1.98;;;26.60;99.90;;;;;;7338028;19;110095;-85
2022/07/31 10:26:38;;;;;;;3.05;2.10;;;26.70;99.80;;;;;;7338617;19;109603;-86
2022/07/31 10:29:26;;;;;;;;;;;26.70;99.50;;;;;;7338956;19;113522;-85
2022/07/31 10:31:58;;;;;;;9.10;2.55;;;26.70;99.50;;;;;;7342816;19;109112;-88
2022/07/31 10:34:26;;;;;;;2.80;2.20;;;26.70;99.40;;;;;;7335996;19;110384;-86
2022/07/31 10:37:00;;;;;;;2.85;1.92;;;26.70;99.00;;;;;;7336963;19;110184;-85
2022/07/31 10:39:49;;;;;;;9.13;2.13;;;26.60;99.00;;;;;;7333906;19;109472;-85
2022/07/31 10:42:38;;;;;;;8.23;2.10;;;26.50;99.50;;;;;;7344553;19;110566;-85
2022/07/31 10:45:08;;;;;;;4.38;1.73;;;26.50;99.70;;;;;;7339980;19;109173;-85
2022/07/31 10:47:35;;;;;;;3.53;2.22;;;26.60;99.30;;;;;;7338975;19;110445;-87
2022/07/31 10:50:03;;;;;;;4.80;1.95;;;26.70;99.50;;;;;;7339083;19;110585;-84
2022/07/31 10:52:34;;;;;;;3.17;1.85;;;26.70;99.20;;;;;;7339262;19;109404;-86
2022/07/31 10:55:01;;;;;;;6.05;2.10;;;26.70;99.20;;;;;;7337074;19;112353;-85
2022/07/31 10:57:32;;;;;;;3.30;2.50;;;26.70;99.20;;;;;;7337237;19;111156;-86
2022/07/31 11:00:13;;;;;;;5.95;2.50;;;26.80;99.00;;;;;;7334035;19;109386;-85
2022/07/31 11:02:40;;;;;;;5.35;2.17;;;26.80;99.30;;;;;;7342891;19;109989;-84
2022/07/31 11:05:12;;;;;;;5.47;2.05;;;26.90;99.10;;;;;;7336745;19;110507;-84
2022/07/31 11:07:44;;;;;;;6.78;2.20;;;27.00;99.20;;;;;;7337407;19;110519;-85
2022/07/31 11:10:18;;;;;;;2.90;2.15;;;27.10;98.90;;;;;;7336311;19;111475;-86
2022/07/31 11:13:06;;;;;;;3.63;2.03;;;27.10;99.00;;;;;;7332393;19;110030;-84
2022/07/31 11:15:36;;;;;;;5.93;2.05;;;27.20;99.00;;;;;;7338119;19;109905;-86
2022/07/31 11:18:18;;;;;;;5.80;1.85;;;27.20;99.00;;;;;;7336712;19;111204;-86
2022/07/31 11:21:04;;;;;;;5.97;2.10;;;27.40;99.10;;;;;;7337155;19;109510;-85
2022/07/31 11:23:51;;;;;;;2.88;2.00;;;27.40;98.60;;;;;;7336682;19;111638;-85
2022/07/31 11:26:29;;;;;;;6.28;2.42;;;27.50;98.90;;;;;;7340802;19;110738;-85
2022/07/31 11:29:08;;;;;;;4.45;2.38;;;27.70;98.40;;;;;;7337671;19;109665;-82
2022/07/31 11:32:05;;;;;;;2.92;1.65;;;27.60;98.10;;;;;;7336737;19;114426;-84
2022/07/31 11:34:48;;;;;;;;;;;27.50;97.80;;;;;;7338669;19;109769;-85
2022/07/31 11:37:19;;;;;;;4.45;1.85;;;27.40;97.80;;;;;;7339820;19;110021;-86
2022/07/31 11:39:47;;;;;;;4.90;2.00;;;27.30;97.90;;;;;;7335921;19;111054;-83
2022/07/31 11:42:19;;;;;;;3.38;1.73;;;27.20;97.90;;;;;;7336942;19;109175;-86
2022/07/31 11:45:04;;;;;;;4.80;2.00;;;27.10;98.10;;;;;;7337658;19;109997;-86
2022/07/31 11:47:41;;;;;;;3.40;1.95;;;27.10;98.40;;;;;;7343927;19;109989;-84
2022/07/31 11:50:29;;;;;;;4.05;1.90;;;27.00;98.40;;;;;;7346461;19;110493;-83
2022/07/31 11:53:05;;;;;;;7.40;2.03;;;27.00;98.40;;;;;;7343684;19;111964;-85
2022/07/31 11:56:02;;;;;;;4.37;2.10;;;27.00;98.70;;;;;;7344845;19;110780;-82
2022/07/31 11:58:30;;;;;;;3.22;1.70;;;27.10;98.90;;;;;;7341914;19;110246;-87
2022/07/31 12:00:58;;;;;;;6.57;1.95;;;27.20;98.40;;;;;;7341143;19;113137;-84
2022/07/31 12:03:30;;;;;;;4.53;2.30;;;27.30;97.90;;;;;;7342104;19;110079;-82
2022/07/31 12:05:58;;;;;;;6.10;2.15;;;27.40;98.50;;;;;;7344217;19;110863;-84
2022/07/31 12:08:26;;;;;;;5.47;2.13;;;27.40;98.30;;;;;;7343078;19;111148;-85
2022/07/31 12:10:59;;;;;;;5.50;1.80;;;27.40;98.20;;;;;;7341719;19;110067;-83
2022/07/31 12:13:27;;;;;;;4.45;1.75;;;27.50;98.10;;;;;;7345944;19;109703;-85
2022/07/31 12:15:56;;;;;;;6.97;1.75;;;27.50;98.60;;;;;;7343393;19;109339;-81
2022/07/31 12:18:27;;;;;;;6.60;1.80;;;27.60;98.10;;;;;;7341064;19;110853;-80
2022/07/31 12:21:01;;;;;;;12.82;2.17;;;27.50;98.10;;;;;;7341585;19;110684;-81
2022/07/31 12:23:43;;;;;;;1.83;1.27;;;27.60;98.20;;;;;;7343722;19;110103;-84
2022/07/31 12:26:19;;;;;;;2.05;1.48;;;27.70;98.10;;;;;;7342834;19;110289;-81
2022/07/31 12:29:01;;;;;;;28.40;5.75;;;27.70;98.00;;;;;;7343342;19;111202;-84
2022/07/31 12:31:31;;;;;;;211.73;36.03;;;27.70;97.80;;;;;;7342772;19;109893;-85
2022/07/31 12:33:58;;;;;;;5.05;2.28;;;27.60;97.80;;;;;;7340526;19;111828;-84
2022/07/31 12:36:26;;;;;;;2.60;1.45;;;27.70;97.90;;;;;;7347574;19;110117;-81
2022/07/31 12:39:00;;;;;;;5.75;1.50;;;27.70;97.80;;;;;;7342720;19;109408;-83
2022/07/31 12:41:29;;;;;;;5.68;1.75;;;27.70;97.80;;;;;;7342324;19;110207;-82
2022/07/31 12:44:11;;;;;;;13.45;5.05;;;27.70;97.80;;;;;;7342255;19;109362;-83
2022/07/31 12:46:48;;;;;;;2.50;1.75;;;27.70;97.60;;;;;;7342654;19;110504;-86
2022/07/31 12:49:15;;;;;;;1.27;1.13;;;27.50;97.90;;;;;;7341417;19;109948;-84
2022/07/31 12:51:42;;;;;;;10.30;1.45;;;27.50;98.10;;;;;;7342178;19;109452;-85
2022/07/31 12:54:16;;;;;;;6.03;1.30;;;27.50;98.20;;;;;;7343163;19;114093;-85
2022/07/31 12:56:45;;;;;;;3.50;1.00;;;27.60;98.10;;;;;;7340653;19;110376;-84